This is the latest recevied weather packets stored in our database for station/object IU2RPR-3. If no packets are shown the sender has not sent any weather packets the latest 10 day(s).
| Time | Temp. | Humidity | Pressure | Rain* | Wind** | Luminosity | Snow |
|---|---|---|---|---|---|---|---|
| 1788196733 | 35.56° C | 33% | 1011 hPa | - | - | - | - |
| 1788195531 | 36.67° C | 32% | 1011.1 hPa | - | - | - | - |
| 1788194330 | 32.78° C | 36% | 1011.3 hPa | - | - | - | - |
| 1788193790 | 33.89° C | 35% | 1011.3 hPa | - | - | - | - |
| 1788192589 | 35° C | 34% | 1011.7 hPa | - | - | - | - |
| 1788190186 | 35.56° C | 34% | 1011.6 hPa | - | - | - | - |
| 1788188985 | 33.89° C | 38% | 1011.8 hPa | - | - | - | - |
| 1788187783 | 31.67° C | 39% | 1012 hPa | - | - | - | - |
| 1788186582 | 31.67° C | 41% | 1012.1 hPa | - | - | - | - |
| 1788185381 | 33.89° C | 37% | 1011.9 hPa | - | - | - | - |
| 1788181776 | 30° C | 45% | 1012.7 hPa | - | - | - | - |
| 1788180574 | 30° C | 45% | 1012.9 hPa | - | - | - | - |
| 1788179372 | 29.44° C | 45% | 1013 hPa | - | - | - | - |
| 1788178171 | 29.44° C | 46% | 1013.1 hPa | - | - | - | - |
| 1788176969 | 29.44° C | 46% | 1013.2 hPa | - | - | - | - |
| 1788175768 | 28.89° C | 46% | 1013.5 hPa | - | - | - | - |
| 1788174566 | 28.89° C | 48% | 1013.7 hPa | - | - | - | - |
| 1788173365 | 27.78° C | 48% | 1013.8 hPa | - | - | - | - |
| 1788172163 | 27.22° C | 50% | 1013.9 hPa | - | - | - | - |
| 1788170962 | 26.67° C | 54% | 1014 hPa | - | - | - | - |
| 1788169761 | 26.11° C | 54% | 1014.2 hPa | - | - | - | - |
| 1788168560 | 26.11° C | 51% | 1014.3 hPa | - | - | - | - |
| 1788167359 | 25.56° C | 52% | 1014.3 hPa | - | - | - | - |
| 1788166157 | 25.56° C | 55% | 1014.2 hPa | - | - | - | - |
| 1788164956 | 25° C | 53% | 1014.2 hPa | - | - | - | - |
* Rain since midnight (hover to see other rain measurements)
** Current wind speed in m/s (hover to see current wind gust speed)